createdAt,value
2023-03-16T00:00:24.858Z,98.70
2023-03-16T00:04:28.315Z,99.00
2023-03-16T00:08:31.829Z,98.90
2023-03-16T00:12:36.866Z,99.20
2023-03-16T00:16:40.505Z,99.50
2023-03-16T00:20:43.892Z,99.60
2023-03-16T00:24:47.348Z,99.90
2023-03-16T00:28:54.428Z,99.80
2023-03-16T00:32:57.930Z,99.80
2023-03-16T00:37:01.736Z,99.80
2023-03-16T00:41:05.851Z,99.90
2023-03-16T00:45:12.578Z,99.90
2023-03-16T00:49:15.858Z,99.90
2023-03-16T00:53:23.409Z,99.90
2023-03-16T00:57:44.020Z,99.90
2023-03-16T01:01:48.829Z,99.90
2023-03-16T01:05:52.358Z,99.90
2023-03-16T01:09:55.621Z,99.90
2023-03-16T01:13:58.930Z,99.90
2023-03-16T01:18:03.759Z,99.90
2023-03-16T01:22:08.746Z,99.90
2023-03-16T01:26:12.677Z,99.90
2023-03-16T01:30:16.084Z,99.90
2023-03-16T01:34:29.827Z,99.90
2023-03-16T01:38:33.677Z,99.90
2023-03-16T01:42:47.480Z,99.90
2023-03-16T01:46:50.953Z,99.90
2023-03-16T01:50:56.661Z,99.90
2023-03-16T01:55:03.857Z,99.90
2023-03-16T01:59:12.894Z,99.90
2023-03-16T02:03:19.813Z,99.90
2023-03-16T02:07:26.272Z,99.90
2023-03-16T02:11:33.062Z,99.90
2023-03-16T02:15:37.225Z,99.90
2023-03-16T02:19:53.861Z,99.90
2023-03-16T02:23:58.998Z,99.90
2023-03-16T02:28:10.852Z,99.90
2023-03-16T02:32:16.671Z,99.90
2023-03-16T02:36:21.017Z,99.90
2023-03-16T02:40:27.397Z,99.90
2023-03-16T02:44:34.999Z,99.90
2023-03-16T02:48:45.636Z,99.90
2023-03-16T02:52:49.205Z,99.90
2023-03-16T02:56:52.567Z,99.90
2023-03-16T03:00:56.977Z,99.90
2023-03-16T03:05:02.109Z,99.90
2023-03-16T03:09:06.610Z,99.90
2023-03-16T03:13:09.955Z,99.90
2023-03-16T03:17:14.578Z,99.90
2023-03-16T03:21:19.619Z,99.90
2023-03-16T03:25:24.616Z,99.90
2023-03-16T03:29:34.599Z,99.90
2023-03-16T03:33:38.153Z,99.90
2023-03-16T03:37:44.272Z,99.90
2023-03-16T03:41:47.943Z,99.90
2023-03-16T03:45:51.449Z,99.90
2023-03-16T03:49:54.823Z,99.90
2023-03-16T03:54:01.630Z,99.90
2023-03-16T03:58:04.910Z,99.90
2023-03-16T04:02:08.406Z,99.90
2023-03-16T04:06:12.911Z,99.90
2023-03-16T04:10:17.706Z,99.90
2023-03-16T04:14:21.041Z,99.90
2023-03-16T04:18:24.304Z,99.90
2023-03-16T04:22:30.585Z,99.90
2023-03-16T04:26:35.455Z,99.90
2023-03-16T04:30:38.963Z,99.90
2023-03-16T04:34:44.074Z,99.90
2023-03-16T04:38:47.357Z,99.90
2023-03-16T04:42:52.178Z,99.90
2023-03-16T04:46:55.470Z,99.90
2023-03-16T04:50:58.962Z,99.90
2023-03-16T04:55:02.435Z,99.90
2023-03-16T04:59:07.120Z,99.90
2023-03-16T05:03:11.445Z,99.90
2023-03-16T05:07:15.286Z,99.90
2023-03-16T05:11:18.806Z,99.90
2023-03-16T05:15:24.596Z,99.90
2023-03-16T05:19:27.899Z,99.90
2023-03-16T05:23:34.239Z,99.90
2023-03-16T05:27:37.562Z,99.90
2023-03-16T05:31:42.404Z,99.90
2023-03-16T05:35:46.095Z,99.90
2023-03-16T05:39:49.383Z,99.90
2023-03-16T05:43:53.201Z,99.90
2023-03-16T05:47:58.099Z,99.90
2023-03-16T05:52:01.356Z,99.90
2023-03-16T05:56:06.121Z,99.90
2023-03-16T06:00:14.689Z,99.90
2023-03-16T06:04:20.864Z,99.90
2023-03-16T06:08:24.202Z,99.90
2023-03-16T06:12:37.819Z,99.90
2023-03-16T06:16:41.284Z,99.90
2023-03-16T06:20:47.518Z,99.90
2023-03-16T06:24:50.910Z,99.90
2023-03-16T06:28:54.619Z,99.90
2023-03-16T06:33:00.266Z,99.90
2023-03-16T06:37:05.309Z,99.90
2023-03-16T06:41:08.659Z,99.90
2023-03-16T06:45:13.261Z,99.90
2023-03-16T06:49:16.588Z,99.90
2023-03-16T06:53:22.211Z,99.90
2023-03-16T06:57:25.559Z,99.90
2023-03-16T07:01:29.864Z,99.90
2023-03-16T07:05:33.435Z,99.90
2023-03-16T07:09:41.066Z,99.90
2023-03-16T07:13:45.514Z,99.90
2023-03-16T07:17:49.056Z,96.90
2023-03-16T07:21:53.504Z,95.80
2023-03-16T07:25:58.217Z,94.70
2023-03-16T07:30:01.676Z,94.40
2023-03-16T07:34:05.595Z,94.80
2023-03-16T07:38:12.264Z,93.30
2023-03-16T07:42:16.945Z,93.40
2023-03-16T07:46:21.156Z,92.90
2023-03-16T07:50:25.121Z,91.60
2023-03-16T07:54:35.718Z,91.70
2023-03-16T07:58:40.494Z,91.70
2023-03-16T08:02:43.988Z,90.30
2023-03-16T08:06:47.997Z,90.70
2023-03-16T08:10:55.058Z,86.70
2023-03-16T08:15:01.172Z,87.10
2023-03-16T08:19:04.859Z,86.10
2023-03-16T08:23:09.270Z,85.80
2023-03-16T08:27:13.379Z,83.10
2023-03-16T08:31:18.204Z,83.90
2023-03-16T08:35:21.626Z,82.20
2023-03-16T08:39:25.123Z,80.60
2023-03-16T08:43:28.391Z,80.60
2023-03-16T08:47:33.356Z,78.60
2023-03-16T08:51:37.170Z,73.90
2023-03-16T08:55:41.650Z,74.30
2023-03-16T08:59:45.124Z,69.10
2023-03-16T09:03:53.131Z,61.30
2023-03-16T09:07:56.509Z,57.70
2023-03-16T09:12:00.157Z,56.10
2023-03-16T09:16:03.959Z,54.20
2023-03-16T09:20:22.339Z,52.10
2023-03-16T09:24:29.801Z,53.50
2023-03-16T09:28:33.455Z,53.40
2023-03-16T09:32:37.530Z,50.80
2023-03-16T09:36:42.503Z,51.20
2023-03-16T09:40:48.185Z,50.70
2023-03-16T09:45:04.038Z,52.30
2023-03-16T09:49:07.346Z,54.10
2023-03-16T09:53:23.556Z,49.90
2023-03-16T09:57:32.722Z,52.40
2023-03-16T10:02:05.193Z,52.00
2023-03-16T10:06:13.905Z,52.70
2023-03-16T10:10:31.284Z,48.40
2023-03-16T10:14:41.115Z,46.70
2023-03-16T10:18:47.442Z,45.40
2023-03-16T10:22:53.658Z,44.80
2023-03-16T10:27:00.692Z,45.70
2023-03-16T10:31:04.713Z,46.90
2023-03-16T10:35:30.008Z,46.70
2023-03-16T10:39:44.965Z,47.60
2023-03-16T10:43:52.643Z,47.90
2023-03-16T10:48:06.611Z,45.90
2023-03-16T10:52:19.811Z,45.00
2023-03-16T10:56:26.401Z,43.30
2023-03-16T11:00:36.464Z,43.40
2023-03-16T11:04:40.842Z,40.70
2023-03-16T11:08:45.360Z,41.60
2023-03-16T11:12:49.800Z,38.90
2023-03-16T11:17:02.688Z,38.00
2023-03-16T11:21:14.986Z,37.40
2023-03-16T11:25:22.849Z,38.40
2023-03-16T11:29:34.064Z,37.90
2023-03-16T11:33:38.853Z,37.20
2023-03-16T11:37:53.683Z,38.50
2023-03-16T11:42:20.734Z,37.10
2023-03-16T11:46:27.550Z,41.70
2023-03-16T11:50:39.113Z,38.80
2023-03-16T11:54:54.260Z,37.60
2023-03-16T11:59:38.742Z,38.10
2023-03-16T12:04:08.256Z,35.90
2023-03-16T12:08:27.743Z,33.90
2023-03-16T12:12:45.967Z,34.10
2023-03-16T12:16:57.471Z,35.60
2023-03-16T12:21:04.222Z,34.60
2023-03-16T12:25:20.063Z,35.50
2023-03-16T12:29:35.420Z,37.60
2023-03-16T12:34:06.989Z,36.50
2023-03-16T12:38:23.431Z,34.20
2023-03-16T12:43:02.967Z,35.30
2023-03-16T12:47:16.442Z,42.10
2023-03-16T12:51:19.822Z,38.00
2023-03-16T12:55:28.142Z,41.80
2023-03-16T12:59:50.788Z,34.30
2023-03-16T13:04:06.669Z,37.10
2023-03-16T13:08:13.893Z,37.20
2023-03-16T13:12:31.126Z,35.70
2023-03-16T13:16:38.545Z,33.80
2023-03-16T13:20:54.459Z,34.50
2023-03-16T13:25:14.149Z,31.40
2023-03-16T13:29:25.965Z,31.60
2023-03-16T13:33:33.877Z,33.50
2023-03-16T13:37:38.146Z,31.60
2023-03-16T13:41:43.515Z,31.20
2023-03-16T13:45:47.198Z,30.10
2023-03-16T13:49:56.785Z,32.10
2023-03-16T13:54:06.466Z,30.10
2023-03-16T13:58:22.186Z,29.40
2023-03-16T14:02:26.013Z,29.60
2023-03-16T14:06:35.374Z,30.00
2023-03-16T14:10:40.450Z,29.70
2023-03-16T14:14:50.224Z,29.60
2023-03-16T14:18:57.153Z,30.90
2023-03-16T14:23:02.997Z,28.90
2023-03-16T14:27:27.465Z,29.00
2023-03-16T14:31:36.532Z,29.60
2023-03-16T14:35:43.210Z,29.70
2023-03-16T14:40:06.094Z,29.40
2023-03-16T14:44:22.866Z,29.60
2023-03-16T14:48:26.900Z,32.50
2023-03-16T14:52:32.760Z,35.10
2023-03-16T14:56:37.551Z,38.40
2023-03-16T15:00:52.758Z,43.20
2023-03-16T15:04:59.063Z,46.50
2023-03-16T15:09:02.986Z,45.60
2023-03-16T15:13:17.355Z,46.20
2023-03-16T15:17:20.845Z,47.30
2023-03-16T15:21:29.622Z,49.50
2023-03-16T15:25:38.732Z,51.00
2023-03-16T15:29:43.504Z,53.50
2023-03-16T15:33:47.088Z,51.70
2023-03-16T15:37:50.690Z,51.10
2023-03-16T15:41:54.181Z,51.10
2023-03-16T15:46:00.367Z,53.40
2023-03-16T15:50:03.890Z,53.00
2023-03-16T15:54:10.062Z,57.40
2023-03-16T15:58:18.801Z,52.80
2023-03-16T16:02:30.130Z,53.70
2023-03-16T16:06:34.024Z,53.00
2023-03-16T16:10:37.410Z,55.60
2023-03-16T16:14:42.001Z,55.20
2023-03-16T16:18:48.480Z,54.60
2023-03-16T16:22:52.950Z,57.40
2023-03-16T16:26:56.728Z,59.30
2023-03-16T16:31:01.708Z,62.10
2023-03-16T16:35:14.699Z,60.20
2023-03-16T16:39:18.222Z,65.00
2023-03-16T16:43:32.953Z,65.30
2023-03-16T16:47:37.212Z,68.40
2023-03-16T16:51:42.983Z,69.20
2023-03-16T16:55:46.822Z,69.80
2023-03-16T16:59:51.120Z,69.50
2023-03-16T17:03:55.463Z,71.30
2023-03-16T17:08:04.650Z,72.20
2023-03-16T17:12:17.010Z,73.00
2023-03-16T17:16:23.026Z,74.80
2023-03-16T17:20:27.819Z,74.70
2023-03-16T17:24:33.601Z,76.10
2023-03-16T17:28:41.702Z,78.00
2023-03-16T17:32:45.399Z,78.30
2023-03-16T17:36:50.176Z,80.10
2023-03-16T17:40:57.049Z,80.10
2023-03-16T17:45:07.485Z,79.30
2023-03-16T17:49:15.115Z,80.40
2023-03-16T17:53:22.381Z,79.80
2023-03-16T17:57:33.911Z,80.80
2023-03-16T18:01:41.705Z,82.00
2023-03-16T18:05:48.391Z,81.20
2023-03-16T18:09:53.717Z,82.80
2023-03-16T18:14:00.820Z,83.70
2023-03-16T18:18:08.773Z,84.80
2023-03-16T18:22:19.677Z,84.10
2023-03-16T18:26:24.888Z,84.90
2023-03-16T18:30:33.961Z,84.60
2023-03-16T18:35:11.740Z,85.00
2023-03-16T18:39:22.541Z,86.10
2023-03-16T18:52:19.636Z,85.70
2023-03-16T18:56:27.745Z,87.40
2023-03-16T19:00:36.283Z,87.40
2023-03-16T19:04:45.895Z,87.60
2023-03-16T19:08:55.212Z,87.60
2023-03-16T19:21:43.470Z,88.70
2023-03-16T19:25:51.062Z,89.80
2023-03-16T19:30:00.082Z,89.80
2023-03-16T19:34:05.595Z,90.10
2023-03-16T19:38:13.324Z,90.70
2023-03-16T19:42:23.945Z,90.20
2023-03-16T19:46:32.041Z,90.40
2023-03-16T19:50:38.482Z,90.30
2023-03-16T19:54:44.920Z,90.10
2023-03-16T19:58:54.229Z,90.40
2023-03-16T20:03:01.821Z,90.80
2023-03-16T20:07:18.339Z,90.70
2023-03-16T20:11:29.507Z,90.90
2023-03-16T20:15:38.793Z,91.50
2023-03-16T20:19:44.285Z,91.80
2023-03-16T20:23:51.157Z,91.80
2023-03-16T20:28:02.212Z,91.80
2023-03-16T20:32:15.507Z,91.80
2023-03-16T20:36:23.554Z,91.70
2023-03-16T20:40:32.838Z,91.80
2023-03-16T20:44:38.816Z,92.40
2023-03-16T20:48:47.582Z,92.10
2023-03-16T20:52:53.130Z,92.00
2023-03-16T20:57:07.297Z,92.40
2023-03-16T21:01:20.219Z,92.60
2023-03-16T21:05:30.391Z,92.70
2023-03-16T21:09:36.737Z,92.60
2023-03-16T21:13:43.664Z,92.50
2023-03-16T21:17:59.227Z,93.20
2023-03-16T21:22:19.643Z,93.10
2023-03-16T21:26:26.944Z,93.20
2023-03-16T21:30:32.608Z,92.90
2023-03-16T21:34:37.357Z,93.10
2023-03-16T21:38:42.618Z,93.10
2023-03-16T21:42:47.763Z,93.60
2023-03-16T21:46:51.408Z,93.40
2023-03-16T21:50:55.998Z,93.20
2023-03-16T21:55:01.164Z,93.40
2023-03-16T21:59:04.674Z,93.60
2023-03-16T22:03:29.550Z,93.10
2023-03-16T22:07:36.761Z,93.00
2023-03-16T22:11:42.473Z,93.20
2023-03-16T22:15:46.937Z,93.70
2023-03-16T22:19:50.259Z,93.40
2023-03-16T22:23:54.132Z,93.60
2023-03-16T22:27:59.246Z,93.70
2023-03-16T22:32:05.807Z,93.70
2023-03-16T22:36:12.409Z,93.60
2023-03-16T22:40:18.988Z,94.10
2023-03-16T22:44:24.993Z,93.70
2023-03-16T22:48:31.676Z,93.60
2023-03-16T22:52:38.319Z,93.90
2023-03-16T22:56:44.178Z,94.00
2023-03-16T23:00:48.903Z,94.10
2023-03-16T23:04:52.412Z,94.50
2023-03-16T23:08:56.604Z,94.20
2023-03-16T23:13:02.169Z,94.30
2023-03-16T23:17:17.697Z,94.50
2023-03-16T23:21:24.064Z,95.10
2023-03-16T23:25:27.627Z,95.50
2023-03-16T23:29:32.287Z,95.10
2023-03-16T23:33:37.115Z,95.50
2023-03-16T23:37:40.433Z,94.80
2023-03-16T23:41:46.159Z,95.10
2023-03-16T23:45:49.706Z,95.50
2023-03-16T23:49:54.506Z,95.50
2023-03-16T23:54:00.613Z,95.50
2023-03-16T23:58:04.102Z,95.40
